Time;durP1;ratioP1;P1;durP2;ratioP2;P2;SDS_P1;SDS_P2;PMS_P1;PMS_P2;Temp;Humidity;BMP_temperature;BMP_pressure;BME280_temperature;BME280_humidity;BME280_pressure;Samples;Min_cycle;Max_cycle;Signal;HPM_P1;HPM_P2
2024/04/18 00:01:05;;;;;;;10.73;5.60;;;;;;;10.16;59.53;101008.44;5310684;26;20547;-73
2024/04/18 00:03:30;;;;;;;6.87;5.40;;;;;;;10.00;59.43;101005.59;5311112;26;20218;-73
2024/04/18 00:05:55;;;;;;;5.73;5.20;;;;;;;9.75;60.00;101012.97;5310097;26;20242;-74
2024/04/18 00:08:21;;;;;;;5.70;5.07;;;;;;;10.00;59.41;101004.72;5311159;27;20296;-73
2024/04/18 00:10:46;;;;;;;6.03;5.30;;;;;;;10.04;58.97;101004.81;5313613;26;20214;-74
2024/04/18 00:13:11;;;;;;;6.50;5.10;;;;;;;10.08;59.04;101010.91;5313001;26;20269;-74
2024/04/18 00:15:38;;;;;;;6.27;5.07;;;;;;;9.83;59.54;101009.66;5312691;26;20230;-74
2024/04/18 00:18:03;;;;;;;6.10;5.10;;;;;;;9.85;59.28;101016.66;5313266;26;20327;-73
2024/04/18 00:20:29;;;;;;;7.30;5.20;;;;;;;9.87;59.26;101014.94;5311914;26;20421;-74
2024/04/18 00:22:54;;;;;;;6.23;5.30;;;;;;;9.64;59.76;101016.28;5311081;26;20264;-74
2024/04/18 00:25:19;;;;;;;6.40;5.23;;;;;;;9.77;59.43;101020.84;5310166;26;20619;-75
2024/04/18 00:27:45;;;;;;;6.03;5.03;;;;;;;9.91;59.01;101016.72;5309927;26;20226;-75
2024/04/18 00:30:10;;;;;;;6.20;4.90;;;;;;;10.14;58.85;101021.44;5310269;26;20615;-74
2024/04/18 00:32:35;;;;;;;6.20;5.60;;;;;;;9.58;59.66;101019.66;5310237;26;20238;-75
2024/04/18 00:35:00;;;;;;;5.97;5.37;;;;;;;10.01;59.17;101024.69;5310220;26;20731;-74
2024/04/18 00:37:26;;;;;;;6.23;4.93;;;;;;;9.74;59.09;101018.16;5308277;27;20214;-74
2024/04/18 00:39:51;;;;;;;6.13;5.53;;;;;;;9.79;59.20;101026.94;5309884;26;20564;-74
2024/04/18 00:42:16;;;;;;;6.10;5.50;;;;;;;9.78;58.85;101023.47;5310211;26;20263;-74
2024/04/18 00:44:42;;;;;;;5.40;4.70;;;;;;;9.61;59.59;101027.50;5308296;27;20244;-74
2024/04/18 00:47:08;;;;;;;6.53;5.50;;;;;;;9.56;59.68;101030.00;5310005;26;20226;-74
2024/04/18 00:49:34;;;;;;;6.70;5.57;;;;;;;9.55;59.62;101032.59;5309865;26;20226;-74
2024/04/18 00:51:59;;;;;;;6.97;5.17;;;;;;;9.38;60.18;101033.16;5309853;26;21046;-74
2024/04/18 00:54:25;;;;;;;6.70;4.93;;;;;;;9.82;59.33;101031.31;5309620;26;20214;-74
2024/04/18 00:56:50;;;;;;;6.43;5.57;;;;;;;9.38;59.92;101027.06;5309656;26;20238;-73
2024/04/18 00:59:16;;;;;;;5.30;4.67;;;;;;;9.27;60.09;101027.72;5309499;26;20211;-75
2024/04/18 01:01:43;;;;;;;7.90;5.40;;;;;;;9.47;59.65;101031.56;5307882;27;20247;-74
2024/04/18 01:04:09;;;;;;;6.80;5.57;;;;;;;9.49;59.90;101027.28;5309330;26;20704;-74
2024/04/18 01:06:35;;;;;;;5.90;5.30;;;;;;;9.33;59.80;101029.56;5309328;26;20433;-74
2024/04/18 01:09:01;;;;;;;6.63;5.17;;;;;;;9.41;59.72;101029.72;5308010;27;20526;-74
2024/04/18 01:11:26;;;;;;;5.87;5.27;;;;;;;9.40;59.62;101031.47;5312961;26;20582;-73
2024/04/18 01:13:52;;;;;;;5.97;5.37;;;;;;;9.73;58.74;101030.31;5312832;26;20519;-74
2024/04/18 01:16:17;;;;;;;5.47;4.97;;;;;;;9.64;59.10;101043.16;5312614;26;20230;-73
2024/04/18 01:18:42;;;;;;;5.80;5.20;;;;;;;9.59;59.77;101037.00;5312304;26;20256;-74
2024/04/18 01:21:09;;;;;;;6.97;5.30;;;;;;;9.59;59.23;101044.81;5312673;26;20317;-74
2024/04/18 01:23:34;;;;;;;5.50;4.93;;;;;;;9.54;59.08;101044.72;5312768;26;20214;-75
2024/04/18 01:25:59;;;;;;;7.73;5.60;;;;;;;9.68;59.11;101050.19;5312869;26;21048;-73
2024/04/18 01:28:24;;;;;;;6.13;5.43;;;;;;;9.56;58.97;101045.63;5312386;26;20238;-72
2024/04/18 01:30:50;;;;;;;7.60;4.80;;;;;;;9.39;59.50;101050.53;5312642;26;20758;-73
2024/04/18 01:33:15;;;;;;;10.27;4.97;;;;;;;9.18;59.95;101050.09;5312521;26;20275;-73
2024/04/18 01:35:40;;;;;;;10.00;5.17;;;;;;;9.23;59.80;101051.94;5312501;26;20230;-75
2024/04/18 01:38:06;;;;;;;5.00;4.40;;;;;;;9.33;59.85;101047.78;5312432;26;20293;-74
2024/04/18 01:40:31;;;;;;;6.60;5.07;;;;;;;9.18;59.99;101050.09;5312485;26;20252;-74
2024/04/18 01:42:56;;;;;;;6.33;5.47;;;;;;;9.18;60.37;101056.16;5312496;26;20222;-74
2024/04/18 01:45:22;;;;;;;7.07;5.50;;;;;;;9.26;60.01;101053.72;5312308;26;20229;-74
2024/04/18 01:47:47;;;;;;;5.70;5.10;;;;;;;9.17;60.16;101057.00;5312433;26;20213;-73
2024/04/18 01:50:12;;;;;;;6.00;5.40;;;;;;;9.37;59.58;101052.19;5312525;26;20700;-74
2024/04/18 01:52:39;;;;;;;8.40;5.87;;;;;;;9.22;59.86;101065.78;5312149;26;20289;-74
2024/04/18 01:55:08;;;;;;;6.90;6.17;;;;;;;9.23;60.15;101058.88;5312254;26;20234;-74
2024/04/18 01:57:34;;;;;;;6.70;5.50;;;;;;;9.28;59.72;101059.81;5310366;27;20452;-73
2024/04/18 01:59:59;;;;;;;6.90;5.60;;;;;;;9.30;59.81;101055.53;5310316;27;20560;-74
2024/04/18 02:02:25;;;;;;;8.00;7.20;;;;;;;8.95;60.34;101060.03;5310544;27;20524;-74
2024/04/18 02:07:19;;;;;;;7.43;6.53;;;;;;;9.09;60.45;101058.56;5275856;27;20274;-76
2024/04/18 02:09:44;;;;;;;7.83;5.90;;;;;;;9.11;60.33;101064.69;5278539;27;20482;-76
2024/04/18 02:12:09;;;;;;;6.77;6.17;;;;;;;9.19;59.57;101065.72;5279220;27;20488;-76
2024/04/18 02:14:35;;;;;;;9.73;6.67;;;;;;;9.14;60.03;101067.34;5279035;27;20231;-75
2024/04/18 02:17:00;;;;;;;8.20;6.50;;;;;;;9.03;60.21;101066.25;5278538;27;20269;-76
2024/04/18 02:19:26;;;;;;;9.53;6.90;;;;;;;9.13;60.55;101068.19;5278079;27;20247;-76
2024/04/18 02:21:51;;;;;;;8.40;7.10;;;;;;;9.00;60.21;101072.28;5277393;27;20635;-76
2024/04/18 02:24:17;;;;;;;7.37;6.60;;;;;;;8.95;60.42;101075.63;5278669;27;20561;-77
2024/04/18 02:26:43;;;;;;;9.50;6.93;;;;;;;9.04;60.48;101076.69;5278613;27;20235;-76
2024/04/18 02:29:08;;;;;;;8.63;6.77;;;;;;;9.12;60.77;101078.56;5278623;27;20223;-76
2024/04/18 02:31:33;;;;;;;7.70;6.40;;;;;;;9.09;60.55;101076.78;5278909;27;20223;-75
2024/04/18 02:33:59;;;;;;;8.00;7.20;;;;;;;9.25;59.93;101081.47;5278702;27;20266;-76
2024/04/18 02:36:24;;;;;;;9.57;8.00;;;;;;;9.20;59.98;101084.81;5279127;27;20321;-76
2024/04/18 02:38:49;;;;;;;10.80;7.30;;;;;;;8.89;60.89;101078.94;5278137;27;20215;-76
2024/04/18 02:41:15;;;;;;;11.20;9.30;;;;;;;8.86;60.50;101081.47;5278964;27;20226;-76
2024/04/18 02:43:40;;;;;;;9.10;8.10;;;;;;;8.90;60.93;101083.31;5279083;27;20235;-75
2024/04/18 02:46:05;;;;;;;10.03;8.93;;;;;;;8.67;61.58;101086.25;5279168;27;20282;-75
2024/04/18 02:48:31;;;;;;;10.07;7.60;;;;;;;8.88;61.11;101080.66;5248840;27;20358;-75
2024/04/18 02:50:56;;;;;;;10.90;8.00;;;;;;;8.70;61.46;101081.16;5278775;27;20269;-76
2024/04/18 02:53:21;;;;;;;8.30;7.50;;;;;;;9.26;60.63;101077.13;5279649;27;20253;-76
2024/04/18 02:55:47;;;;;;;8.53;7.60;;;;;;;9.15;60.44;101083.84;5278713;27;20231;-75
2024/04/18 02:58:12;;;;;;;9.07;8.10;;;;;;;9.13;60.39;101080.31;5279039;27;20262;-75
2024/04/18 03:00:37;;;;;;;8.57;7.73;;;;;;;9.21;60.59;101082.22;5278969;27;20266;-75
2024/04/18 03:03:03;;;;;;;8.77;7.97;;;;;;;8.84;60.55;101088.38;5278577;27;20219;-76
2024/04/18 03:05:29;;;;;;;9.17;8.27;;;;;;;8.61;61.41;101085.28;5278020;27;20331;-75
2024/04/18 03:07:58;;;;;;;9.23;8.23;;;;;;;8.93;61.20;101089.47;5277770;27;20419;-76
2024/04/18 03:10:23;;;;;;;11.77;8.60;;;;;;;9.06;60.61;101087.97;5278047;27;20226;-75
2024/04/18 03:12:52;;;;;;;9.40;8.40;;;;;;;9.00;60.50;101085.28;5278103;27;20501;-75
2024/04/18 03:15:18;;;;;;;9.83;8.30;;;;;;;8.68;61.84;101095.81;5278278;27;20289;-76
2024/04/18 03:17:43;;;;;;;9.33;8.43;;;;;;;8.63;61.52;101091.34;5278076;27;20787;-75
2024/04/18 03:20:08;;;;;;;9.87;8.80;;;;;;;8.44;61.94;101090.88;5278248;27;20270;-76
2024/04/18 03:22:34;;;;;;;10.50;9.40;;;;;;;8.77;61.70;101093.44;5277659;27;20266;-76
2024/04/18 03:25:00;;;;;;;10.07;9.07;;;;;;;8.79;61.25;101096.06;5277709;27;20329;-76
2024/04/18 03:27:26;;;;;;;12.80;9.80;;;;;;;8.97;61.24;101093.00;5277887;27;20321;-76
2024/04/18 03:29:51;;;;;;;14.47;9.83;;;;;;;8.89;61.32;101095.44;5248238;27;20470;-76
2024/04/18 03:32:16;;;;;;;12.43;9.70;;;;;;;8.72;61.71;101102.84;5277134;27;20270;-76
2024/04/18 03:34:41;;;;;;;9.80;8.43;;;;;;;8.92;61.18;101098.09;5278130;27;20291;-76
2024/04/18 03:37:07;;;;;;;12.10;9.30;;;;;;;7.71;64.25;101109.84;5278520;27;20769;-76
2024/04/18 03:39:32;;;;;;;11.77;9.97;;;;;;;8.32;62.67;101104.47;5278135;27;20223;-77
2024/04/18 03:41:58;;;;;;;11.70;10.50;;;;;;;8.39;62.67;101103.78;5278425;27;20219;-75
2024/04/18 03:44:23;;;;;;;12.07;9.57;;;;;;;7.63;64.33;101111.34;5278462;27;20227;-75
2024/04/18 03:46:48;;;;;;;12.40;9.57;;;;;;;7.99;64.15;101109.69;5278392;27;20235;-75
2024/04/18 03:49:14;;;;;;;12.20;10.30;;;;;;;7.74;64.07;101119.41;5277754;27;20654;-76
2024/04/18 03:51:39;;;;;;;12.10;10.20;;;;;;;7.68;64.47;101122.69;5277614;27;20227;-76
2024/04/18 03:54:04;;;;;;;11.30;10.10;;;;;;;7.93;64.57;101120.78;5277831;27;20329;-76
2024/04/18 03:56:30;;;;;;;12.07;9.90;;;;;;;8.21;63.73;101116.31;5277698;27;20239;-75
2024/04/18 03:58:55;;;;;;;11.50;10.33;;;;;;;8.08;63.68;101120.31;5277213;27;20219;-75
2024/04/18 04:01:21;;;;;;;11.17;9.73;;;;;;;8.52;63.00;101120.56;5278042;27;20227;-76
2024/04/18 04:03:46;;;;;;;14.63;10.37;;;;;;;8.99;61.40;101119.91;5277544;27;20227;-76
2024/04/18 04:06:12;;;;;;;16.30;11.47;;;;;;;8.80;61.67;101134.22;5247577;27;20306;-75
2024/04/18 04:08:37;;;;;;;11.50;9.73;;;;;;;8.70;61.02;101133.13;5276788;27;20215;-75
2024/04/18 04:11:02;;;;;;;12.20;11.00;;;;;;;7.78;63.81;101142.03;5277283;27;20227;-75
2024/04/18 04:13:27;;;;;;;11.07;9.97;;;;;;;8.16;63.57;101143.88;5277833;27;20223;-76
2024/04/18 04:15:55;;;;;;;11.33;9.90;;;;;;;7.54;64.73;101147.41;5277300;27;20239;-76
2024/04/18 04:18:23;;;;;;;11.10;10.10;;;;;;;7.92;64.34;101148.44;5277180;27;20317;-76
2024/04/18 04:20:48;;;;;;;13.90;10.90;;;;;;;8.24;63.27;101139.75;5247784;27;20502;-75
2024/04/18 04:23:13;;;;;;;14.80;11.40;;;;;;;8.31;62.85;101143.38;5277726;27;20972;-75
2024/04/18 04:25:39;;;;;;;14.37;11.10;;;;;;;8.21;63.52;101153.56;5279138;27;20599;-75
2024/04/18 04:28:04;;;;;;;13.57;11.50;;;;;;;8.03;63.66;101148.75;5278747;27;20215;-76
2024/04/18 04:30:30;;;;;;;13.33;10.63;;;;;;;8.37;64.36;101151.34;5278783;27;20298;-76
2024/04/18 04:32:55;;;;;;;14.57;10.53;;;;;;;7.64;65.61;101169.28;5278043;27;20251;-75
2024/04/18 04:35:20;;;;;;;15.97;12.17;;;;;;;7.98;64.79;101165.91;5277713;27;20278;-75
2024/04/18 04:37:45;;;;;;;19.00;12.03;;;;;;;8.05;64.30;101165.25;5276931;27;20249;-75
2024/04/18 04:40:11;;;;;;;11.53;10.00;;;;;;;8.18;63.55;101173.38;5276609;27;20231;-77
2024/04/18 04:42:36;;;;;;;11.80;10.30;;;;;;;8.38;63.07;101164.38;5276491;27;20267;-75
2024/04/18 04:45:01;;;;;;;11.07;9.90;;;;;;;8.31;63.26;101171.94;5278395;27;20619;-75
2024/04/18 04:47:27;;;;;;;11.87;10.20;;;;;;;8.36;63.22;101172.94;5279745;27;20238;-76
2024/04/18 04:49:52;;;;;;;14.17;10.63;;;;;;;8.55;62.16;101174.31;5280621;27;20267;-76
2024/04/18 04:52:18;;;;;;;16.03;10.97;;;;;;;8.39;62.77;101173.06;5280417;27;20227;-76
2024/04/18 04:54:43;;;;;;;11.50;10.30;;;;;;;8.41;62.89;101187.81;5279916;27;20749;-76
2024/04/18 04:57:09;;;;;;;11.67;10.40;;;;;;;8.08;63.57;101198.22;5280520;27;20235;-76
2024/04/18 04:59:36;;;;;;;11.50;10.30;;;;;;;8.36;63.24;101199.84;5279467;27;20303;-76
2024/04/18 05:02:01;;;;;;;14.90;10.83;;;;;;;7.96;63.80;101198.75;5279591;27;20847;-77
2024/04/18 05:04:27;;;;;;;13.47;10.20;;;;;;;8.31;62.99;101195.31;5280116;27;20524;-76
2024/04/18 05:06:52;;;;;;;11.23;10.13;;;;;;;8.21;62.86;101202.91;5249593;27;20243;-76
2024/04/18 05:09:19;;;;;;;11.57;10.00;;;;;;;8.34;63.19;101201.50;5279284;27;20572;-77
2024/04/18 05:11:45;;;;;;;12.60;9.57;;;;;;;8.44;62.54;101197.41;5280379;27;20333;-74
2024/04/18 05:14:10;;;;;;;11.63;10.53;;;;;;;8.35;62.32;101208.47;5279134;27;20446;-76
2024/04/18 05:16:36;;;;;;;11.90;10.30;;;;;;;8.26;63.50;101208.22;5279268;27;20235;-76
2024/04/18 05:19:01;;;;;;;11.40;10.30;;;;;;;8.73;62.32;101211.19;5278792;27;20239;-76
2024/04/18 05:21:26;;;;;;;12.83;10.53;;;;;;;8.71;62.50;101212.88;5279350;27;20223;-75
2024/04/18 05:23:52;;;;;;;13.37;11.20;;;;;;;8.69;62.37;101214.53;5279115;27;20223;-76
2024/04/18 05:26:17;;;;;;;10.70;9.70;;;;;;;8.78;62.12;101213.88;5278778;27;20281;-76
2024/04/18 05:31:00;;;;;;;12.80;10.87;;;;;;;9.02;61.69;101213.59;5278732;27;20254;-76
2024/04/18 05:31:28;;;;;;;12.60;11.27;;;;;;;9.19;61.65;101216.59;5279179;27;20261;-76
2024/04/18 05:33:53;;;;;;;12.37;10.40;;;;;;;9.41;61.46;101217.09;5278881;27;20466;-76
2024/04/18 05:36:19;;;;;;;13.70;12.10;;;;;;;9.16;61.12;101220.84;5278562;27;21055;-76
2024/04/18 05:38:44;;;;;;;12.23;11.03;;;;;;;9.42;61.17;101224.06;5279174;27;20242;-77
2024/04/18 05:41:09;;;;;;;13.13;11.73;;;;;;;9.25;61.71;101223.66;5280316;27;20277;-76
2024/04/18 05:43:35;;;;;;;13.87;10.90;;;;;;;9.44;62.26;101225.84;5279253;27;20314;-75
2024/04/18 05:46:00;;;;;;;12.57;11.30;;;;;;;9.38;62.77;101228.31;5279434;27;20270;-75
2024/04/18 05:48:25;;;;;;;12.90;11.60;;;;;;;9.66;62.25;101220.22;5279416;27;20807;-76
2024/04/18 05:50:51;;;;;;;17.33;12.60;;;;;;;9.87;61.99;101232.81;5279275;27;20261;-75
2024/04/18 05:53:17;;;;;;;14.83;13.30;;;;;;;9.67;62.62;101225.44;5279820;27;20250;-76
2024/04/18 05:55:42;;;;;;;14.50;13.07;;;;;;;9.57;63.30;101226.13;5278087;27;20487;-76
2024/04/18 05:58:08;;;;;;;16.70;14.53;;;;;;;10.19;62.40;101229.94;5278347;27;20435;-76
2024/04/18 06:00:34;;;;;;;17.07;15.30;;;;;;;10.44;61.73;101227.00;5278790;27;20227;-76
2024/04/18 06:03:00;;;;;;;16.67;15.07;;;;;;;10.29;62.11;101224.94;5249603;27;20434;-77
2024/04/18 06:05:25;;;;;;;16.70;15.13;;;;;;;10.27;62.10;101229.25;5278767;27;20400;-75
2024/04/18 06:07:51;;;;;;;15.63;14.13;;;;;;;10.39;62.09;101231.25;5279390;27;20568;-76
2024/04/18 06:10:17;;;;;;;15.63;14.07;;;;;;;10.41;62.11;101233.88;5278593;27;20317;-76
2024/04/18 06:12:42;;;;;;;14.87;13.43;;;;;;;10.49;62.35;101234.91;5278869;27;20443;-76
2024/04/18 06:15:07;;;;;;;15.10;13.60;;;;;;;10.88;61.82;101231.22;5278265;27;20247;-76
2024/04/18 06:17:33;;;;;;;14.20;12.13;;;;;;;10.57;61.53;101233.28;5278000;27;20822;-76
2024/04/18 06:19:58;;;;;;;13.00;11.70;;;;;;;10.77;62.06;101241.47;5277958;27;20235;-76
2024/04/18 06:22:23;;;;;;;14.07;12.57;;;;;;;11.12;60.80;101233.34;5277773;27;20223;-76
2024/04/18 06:24:50;;;;;;;13.20;11.83;;;;;;;11.12;60.66;101241.16;5278167;27;20227;-76
2024/04/18 06:27:15;;;;;;;12.13;11.03;;;;;;;11.12;60.58;101241.16;5278294;27;20227;-78
2024/04/18 06:29:40;;;;;;;12.90;11.60;;;;;;;11.04;60.68;101250.59;5278387;27;20817;-75
2024/04/18 06:32:06;;;;;;;12.33;10.97;;;;;;;10.91;61.92;101251.25;5278690;27;20579;-76
2024/04/18 06:34:31;;;;;;;12.30;11.20;;;;;;;11.22;60.65;101254.34;5279225;27;20274;-77
2024/04/18 06:36:56;;;;;;;12.10;10.90;;;;;;;11.63;59.86;101251.44;5278341;27;20282;-76
2024/04/18 06:39:22;;;;;;;18.20;12.10;;;;;;;11.76;58.92;101250.75;5277466;27;20744;-74
2024/04/18 06:41:47;;;;;;;13.70;10.97;;;;;;;11.77;58.40;101257.75;5277314;27;20679;-76
2024/04/18 06:44:12;;;;;;;15.00;12.10;;;;;;;11.31;58.39;101253.59;5277148;27;20223;-75
2024/04/18 06:46:38;;;;;;;12.97;10.20;;;;;;;11.65;58.02;101261.91;5277450;27;20297;-76
2024/04/18 06:49:04;;;;;;;10.70;9.60;;;;;;;11.85;57.46;101252.59;5247630;27;20258;-75
2024/04/18 06:51:29;;;;;;;9.93;9.00;;;;;;;11.54;57.56;101257.44;5277679;27;20227;-75
2024/04/18 06:53:54;;;;;;;9.83;8.83;;;;;;;11.79;57.71;101266.47;5277529;27;20227;-76
2024/04/18 06:56:20;;;;;;;14.60;8.70;;;;;;;11.84;56.97;101255.19;5276952;27;20279;-77
2024/04/18 06:58:46;;;;;;;10.10;9.10;;;;;;;12.19;57.05;101258.28;5277128;27;20219;-76
2024/04/18 07:01:11;;;;;;;10.33;9.27;;;;;;;12.26;56.62;101259.22;5277117;27;20266;-79
2024/04/18 07:03:36;;;;;;;10.90;9.60;;;;;;;12.25;56.35;101254.84;5277673;27;20454;-77
2024/04/18 07:06:02;;;;;;;10.23;9.17;;;;;;;11.84;56.45;101270.88;5276975;27;20235;-76
2024/04/18 07:08:27;;;;;;;8.40;7.50;;;;;;;11.89;55.86;101263.97;5276610;27;20223;-77
2024/04/18 07:10:53;;;;;;;9.20;8.07;;;;;;;12.33;55.64;101270.63;5277206;27;20572;-75
2024/04/18 07:13:19;;;;;;;9.00;8.10;;;;;;;12.52;55.31;101271.69;5276574;27;20310;-76
2024/04/18 07:15:45;;;;;;;11.17;8.30;;;;;;;12.21;55.57;101284.44;5276526;27;20591;-77
2024/04/18 07:18:10;;;;;;;8.10;7.30;;;;;;;12.44;55.50;101275.09;5276826;27;20438;-76
2024/04/18 07:20:35;;;;;;;10.50;7.20;;;;;;;12.55;53.90;101275.22;5276840;27;20228;-78
2024/04/18 07:23:01;;;;;;;8.43;7.43;;;;;;;12.72;54.60;101283.22;5277444;27;20219;-76
2024/04/18 07:25:26;;;;;;;8.93;8.03;;;;;;;12.36;55.58;101286.34;5276611;27;20236;-76
2024/04/18 07:27:51;;;;;;;9.00;8.10;;;;;;;12.56;54.08;101283.94;5276131;27;20270;-76
2024/04/18 07:30:16;;;;;;;9.83;8.70;;;;;;;12.64;54.64;101280.53;5276608;27;20337;-77
2024/04/18 07:32:42;;;;;;;9.90;8.67;;;;;;;12.59;54.87;101278.75;5276685;27;20277;-76
2024/04/18 07:35:08;;;;;;;10.00;9.03;;;;;;;13.02;54.69;101276.50;5276973;27;20223;-75
2024/04/18 07:37:33;;;;;;;10.13;8.80;;;;;;;13.47;53.93;101271.63;5276586;27;20257;-76
2024/04/18 07:40:01;;;;;;;9.27;8.37;;;;;;;12.46;54.17;101282.94;5276558;27;20265;-76
2024/04/18 07:42:26;;;;;;;8.03;7.23;;;;;;;13.12;52.54;101280.06;5276826;27;20219;-76
2024/04/18 07:44:51;;;;;;;10.17;7.43;;;;;;;12.72;54.14;101279.72;5276983;27;20483;-76
2024/04/18 07:47:17;;;;;;;9.53;8.53;;;;;;;12.81;54.80;101266.72;5275989;27;20780;-75
2024/04/18 07:49:42;;;;;;;8.83;7.97;;;;;;;12.88;54.40;101275.50;5276565;27;20592;-77
2024/04/18 07:52:10;;;;;;;10.37;8.60;;;;;;;12.82;54.00;101275.47;5276264;27;20332;-76
2024/04/18 07:54:36;;;;;;;9.90;8.10;;;;;;;12.67;53.08;101279.69;5281305;27;20219;-75
2024/04/18 07:57:01;;;;;;;9.33;8.10;;;;;;;12.99;54.62;101273.88;5277358;27;20484;-76
2024/04/18 07:59:26;;;;;;;8.33;7.43;;;;;;;13.13;54.00;101281.84;5277367;27;20263;-76
2024/04/18 08:01:52;;;;;;;11.40;7.73;;;;;;;12.97;53.00;101286.06;5277236;27;20223;-78
2024/04/18 08:04:17;;;;;;;12.00;7.83;;;;;;;12.93;53.91;101294.75;5277067;27;20231;-77
2024/04/18 08:06:42;;;;;;;8.53;6.80;;;;;;;13.07;52.76;101293.13;5319587;21;20778;-74
2024/04/18 08:09:07;;;;;;;7.80;7.00;;;;;;;12.82;52.48;101301.63;5279696;27;20252;-73
2024/04/18 08:11:33;;;;;;;8.73;7.67;;;;;;;13.32;52.14;101293.31;5280169;27;20226;-79
2024/04/18 08:13:58;;;;;;;9.50;7.57;;;;;;;13.51;51.47;101288.25;5310510;27;20304;-74
2024/04/18 08:16:23;;;;;;;8.87;7.60;;;;;;;13.13;52.57;101287.06;5280267;27;20304;-76
2024/04/18 08:18:49;;;;;;;8.37;7.57;;;;;;;12.90;52.27;101289.50;5279998;27;20672;-74
2024/04/18 08:21:14;;;;;;;8.03;7.27;;;;;;;13.32;51.63;101291.56;5313110;27;20603;-73
2024/04/18 08:23:39;;;;;;;8.40;7.30;;;;;;;14.29;49.66;101280.75;5313625;27;20233;-73
2024/04/18 08:26:05;;;;;;;6.50;5.40;;;;;;;13.94;49.15;101285.84;5313342;27;20234;-73
2024/04/18 08:28:30;;;;;;;7.20;5.77;;;;;;;13.46;49.70;101293.44;5313032;27;20218;-72
2024/04/18 08:30:56;;;;;;;7.87;5.63;;;;;;;13.24;50.23;101295.00;5313082;27;20695;-74
2024/04/18 08:33:21;;;;;;;8.00;6.70;;;;;;;13.37;52.14;101285.50;5313554;27;20272;-73
2024/04/18 08:35:46;;;;;;;8.70;7.00;;;;;;;13.31;51.05;101296.78;5312560;27;20367;-73
2024/04/18 08:38:12;;;;;;;11.83;7.63;;;;;;;13.99;50.81;101299.88;5312937;27;20214;-73
2024/04/18 08:40:38;;;;;;;7.90;6.57;;;;;;;14.33;49.34;101289.50;5312842;27;20268;-74
2024/04/18 08:43:04;;;;;;;9.90;7.10;;;;;;;13.67;49.50;101287.47;5313137;27;20221;-74
2024/04/18 08:45:35;;;;;;;9.47;7.30;;;;;;;13.66;51.75;101282.22;5313412;27;20312;-74
2024/04/18 08:48:01;;;;;;;7.50;6.57;;;;;;;12.87;51.73;101282.50;5283007;27;20425;-73
2024/04/18 08:50:29;;;;;;;8.30;7.13;;;;;;;13.65;51.53;101283.94;5312864;27;20564;-74
2024/04/18 08:52:57;;;;;;;7.40;6.70;;;;;;;13.58;51.01;101284.78;5312942;27;20234;-73
2024/04/18 08:55:23;;;;;;;8.50;7.33;;;;;;;13.60;50.66;101291.78;5312788;27;20534;-73
2024/04/18 08:57:52;;;;;;;9.20;6.63;;;;;;;14.01;50.33;101278.91;5312790;27;20425;-73
2024/04/18 09:00:17;;;;;;;9.37;6.73;;;;;;;14.61;49.16;101293.06;5313243;27;20230;-72
2024/04/18 09:02:44;;;;;;;7.90;6.37;;;;;;;14.03;48.22;101288.53;5313066;27;20448;-75
2024/04/18 09:05:10;;;;;;;6.20;5.50;;;;;;;13.77;49.87;101291.00;5313109;27;20282;-74
2024/04/18 09:07:35;;;;;;;6.10;5.50;;;;;;;13.74;49.42;101288.38;5282850;27;20461;-74
2024/04/18 09:10:10;;;;;;;7.43;5.43;;;;;;;13.51;49.19;101293.47;5312570;27;20229;-72
2024/04/18 09:12:35;;;;;;;6.23;4.80;;;;;;;13.70;48.53;101290.09;5312670;27;20683;-73
2024/04/18 09:15:02;;;;;;;8.37;5.50;;;;;;;13.78;47.71;101288.38;5312916;27;20469;-73
2024/04/18 09:17:28;;;;;;;7.13;5.57;;;;;;;14.13;47.14;101286.81;5312818;27;20241;-73
2024/04/18 09:19:54;;;;;;;6.80;5.60;;;;;;;14.31;47.49;101288.59;5312861;27;20544;-73
2024/04/18 09:22:20;;;;;;;7.57;5.50;;;;;;;14.17;46.91;101285.94;5314192;27;20269;-73
2024/04/18 09:24:46;;;;;;;7.30;4.90;;;;;;;14.26;45.91;101285.09;5313835;27;20226;-73
2024/04/18 09:27:13;;;;;;;5.17;4.60;;;;;;;13.74;46.64;101289.25;5312621;27;20800;-74
2024/04/18 09:29:38;;;;;;;9.17;4.90;;;;;;;13.38;46.14;101303.88;5282438;27;20223;-74
2024/04/18 09:32:07;;;;;;;6.93;4.50;;;;;;;13.76;45.47;101289.25;5314849;27;20555;-73
2024/04/18 09:34:34;;;;;;;6.93;5.07;;;;;;;14.04;44.25;101292.00;5312243;27;20226;-74
2024/04/18 09:37:06;;;;;;;6.20;4.60;;;;;;;14.68;45.42;101280.88;5312137;27;20501;-73
2024/04/18 09:39:33;;;;;;;9.90;5.60;;;;;;;15.39;44.62;101283.47;5311584;27;20966;-73
2024/04/18 09:42:22;;;;;;;9.93;6.00;;;;;;;14.80;44.73;101282.59;5312042;27;20425;-73
2024/04/18 09:44:53;;;;;;;7.03;5.83;;;;;;;15.75;43.12;101284.25;5311751;27;20492;-73
2024/04/18 09:47:19;;;;;;;7.57;5.30;;;;;;;16.22;42.49;101284.09;5311908;27;20461;-74
2024/04/18 09:49:45;;;;;;;5.40;4.67;;;;;;;15.68;42.94;101284.28;5311892;27;20453;-73
2024/04/18 09:52:13;;;;;;;6.00;4.90;;;;;;;15.54;43.55;101279.06;5311892;27;20506;-72
2024/04/18 09:54:40;;;;;;;6.60;5.40;;;;;;;14.39;45.10;101280.75;5312118;27;20262;-73
2024/04/18 09:57:06;;;;;;;5.70;5.10;;;;;;;14.92;45.33;101276.50;5311971;27;20505;-75
2024/04/18 09:59:34;;;;;;;5.47;4.63;;;;;;;15.76;43.84;101277.25;5311833;27;20457;-73
2024/04/18 10:02:00;;;;;;;5.37;4.60;;;;;;;16.54;41.68;101267.25;5311481;27;20977;-72
2024/04/18 10:04:27;;;;;;;6.77;5.03;;;;;;;15.87;42.62;101264.97;5312634;27;20425;-75
2024/04/18 10:06:54;;;;;;;5.83;4.60;;;;;;;16.00;42.38;101271.06;5312478;26;20234;-75
2024/04/18 10:09:22;;;;;;;5.70;4.10;;;;;;;16.56;40.18;101271.63;5312079;27;20437;-76
2024/04/18 10:11:48;;;;;;;4.63;3.40;;;;;;;15.79;39.74;101270.22;5310374;27;20499;-73
2024/04/18 10:14:14;;;;;;;4.90;3.70;;;;;;;15.16;40.13;101273.00;5311526;27;20441;-74
2024/04/18 10:16:50;;;;;;;5.47;3.80;;;;;;;15.81;37.03;101255.34;5311923;27;20238;-75
2024/04/18 10:19:20;;;;;;;6.10;4.13;;;;;;;16.33;36.63;101258.59;5312120;27;20278;-74
2024/04/18 10:21:55;;;;;;;6.03;4.13;;;;;;;16.03;36.76;101262.28;5312233;27;20453;-73
2024/04/18 10:24:20;;;;;;;5.07;4.30;;;;;;;15.22;39.26;101264.22;5311713;27;20917;-73
2024/04/18 10:26:45;;;;;;;6.10;4.60;;;;;;;14.77;40.77;101269.47;5281505;27;20473;-74
2024/04/18 10:29:26;;;;;;;6.23;4.73;;;;;;;14.44;42.56;101269.41;5281382;27;20226;-75
2024/04/18 10:31:51;;;;;;;5.90;4.47;;;;;;;14.43;42.17;101267.66;5312228;27;20290;-74
2024/04/18 10:34:21;;;;;;;6.40;4.57;;;;;;;14.55;42.04;101266.81;5281136;27;20465;-72
2024/04/18 10:36:47;;;;;;;6.00;4.73;;;;;;;14.60;42.49;101265.06;5311758;27;20628;-72
2024/04/18 10:40:00;;;;;;;4.90;4.30;;;;;;;14.53;43.06;101260.69;5311538;27;20422;-73
2024/04/18 10:42:25;;;;;;;4.90;4.00;;;;;;;14.37;43.00;101264.13;5311389;27;20218;-73
2024/04/18 10:44:51;;;;;;;5.07;4.40;;;;;;;14.37;42.82;101261.50;5312171;27;20498;-73
2024/04/18 10:47:20;;;;;;;7.87;6.47;;;;;;;14.24;43.40;101266.72;5311828;27;20234;-73
2024/04/18 10:49:46;;;;;;;4.23;3.53;;;;;;;14.56;42.19;101265.03;5311409;27;20268;-75
2024/04/18 10:52:17;;;;;;;6.20;4.30;;;;;;;14.04;44.18;101271.91;5311151;27;20449;-73
2024/04/18 10:54:44;;;;;;;4.90;3.57;;;;;;;14.47;45.07;101268.53;5311516;27;20226;-73
2024/04/18 10:57:09;;;;;;;4.70;3.80;;;;;;;14.07;47.44;101279.81;5312068;27;20445;-72
2024/04/18 10:59:39;;;;;;;6.53;3.60;;;;;;;12.84;50.72;101294.66;5310661;27;20425;-73
2024/04/18 11:02:04;;;;;;;7.67;3.60;;;;;;;12.80;52.08;101285.94;5311610;27;20222;-74
2024/04/18 11:04:30;;;;;;;5.80;3.50;;;;;;;12.67;53.17;101282.31;5311729;27;20815;-73
2024/04/18 11:06:55;;;;;;;5.30;3.50;;;;;;;12.88;52.20;101280.75;5312364;27;20230;-73
2024/04/18 11:09:21;;;;;;;52.17;25.77;;;;;;;13.18;52.14;101287.09;5311202;27;20226;-73
2024/04/18 11:11:46;;;;;;;6.60;5.70;;;;;;;13.05;51.81;101279.16;5311196;27;20470;-72
2024/04/18 11:14:13;;;;;;;6.40;3.80;;;;;;;12.97;52.51;101286.06;5311033;27;20222;-73
2024/04/18 11:16:38;;;;;;;5.50;3.93;;;;;;;13.08;51.73;101278.28;5281195;27;20659;-73
2024/04/18 11:19:04;;;;;;;4.80;4.10;;;;;;;13.55;49.93;101274.28;5311327;27;20958;-73
2024/04/18 11:21:29;;;;;;;3.87;3.43;;;;;;;13.23;51.10;101281.06;5311080;27;20331;-73